Time;durP1;ratioP1;P1;durP2;ratioP2;P2;SDS_P1;SDS_P2;PMS_P1;PMS_P2;Temp;Humidity;BMP_temperature;BMP_pressure;BME280_temperature;BME280_humidity;BME280_pressure;Samples;Min_cycle;Max_cycle;Signal;HPM_P1;HPM_P2
2022/06/07 00:02:25;;;;;;;12.33;7.60;;;;;;;;;;4999843;28;20993;-82
2022/06/07 00:04:52;;;;;;;7.73;7.03;;;;;;;;;;4994778;28;20451;-83
2022/06/07 00:07:19;;;;;;;9.50;6.50;;;;;;;;;;5001344;28;20473;-82
2022/06/07 00:09:45;;;;;;;8.43;7.37;;;;;;;;;;5002403;28;21001;-83
2022/06/07 00:12:12;;;;;;;13.57;7.97;;;;;;;;;;5000980;28;21001;-82
2022/06/07 00:14:38;;;;;;;7.20;6.50;;;;;;;;;;5000973;28;20446;-81
2022/06/07 00:17:06;;;;;;;8.30;6.77;;;;;;;;;;5000365;28;20484;-82
2022/06/07 00:19:33;;;;;;;10.23;7.83;;;;;;;;;;5002439;28;20948;-82
2022/06/07 00:21:59;;;;;;;11.63;8.63;;;;;;;;;;4999474;28;20522;-81
2022/06/07 00:24:26;;;;;;;8.40;7.20;;;;;;;;;;5002942;28;20454;-81
2022/06/07 00:26:52;;;;;;;11.97;7.80;;;;;;;;;;5001571;28;20477;-82
2022/06/07 00:29:19;;;;;;;8.80;7.30;;;;;;;;;;5003301;28;20821;-83
2022/06/07 00:31:46;;;;;;;8.77;7.87;;;;;;;;;;5003552;28;20448;-81
2022/06/07 00:34:14;;;;;;;8.07;7.10;;;;;;;;;;4999434;28;20457;-81
2022/06/07 00:36:41;;;;;;;12.83;8.23;;;;;;;;;;5003534;28;20476;-83
2022/06/07 00:39:08;;;;;;;9.50;7.30;;;;;;;;;;5002737;28;20470;-82
2022/06/07 00:41:34;;;;;;;8.13;6.87;;;;;;;;;;4999108;28;20465;-81
2022/06/07 00:44:31;;;;;;;12.33;8.00;;;;;;;;;;5000999;28;20461;-81
2022/06/07 00:46:59;;;;;;;9.80;8.10;;;;;;;;;;4937490;28;20452;-81
2022/06/07 00:49:27;;;;;;;9.80;6.93;;;;;;;;;;4985693;28;20569;-81
2022/06/07 00:51:53;;;;;;;13.13;8.30;;;;;;;;;;5004208;28;20474;-82
2022/06/07 00:54:20;;;;;;;8.10;7.03;;;;;;;;;;5005567;28;20434;-81
2022/06/07 00:56:46;;;;;;;8.80;7.77;;;;;;;;;;4999321;28;20545;-81
2022/06/07 00:59:13;;;;;;;9.93;8.13;;;;;;;;;;5004337;28;20453;-82
2022/06/07 01:01:40;;;;;;;15.30;9.50;;;;;;;;;;5003266;28;20921;-83
2022/06/07 01:04:06;;;;;;;10.80;8.00;;;;;;;;;;5003290;28;20453;-81
2022/06/07 01:12:02;;;;;;;11.47;8.30;;;;;;;;;;5005119;28;21092;-82
2022/06/07 01:14:28;;;;;;;10.07;9.03;;;;;;;;;;5007593;28;20458;-83
2022/06/07 01:16:54;;;;;;;13.10;8.70;;;;;;;;;;5004321;28;20463;-82
2022/06/07 01:19:21;;;;;;;11.77;9.93;;;;;;;;;;5005092;28;20537;-82
2022/06/07 01:21:48;;;;;;;12.40;11.20;;;;;;;;;;5006619;28;20470;-82
2022/06/07 01:24:15;;;;;;;13.73;11.00;;;;;;;;;;5006464;28;20450;-81
2022/06/07 01:26:42;;;;;;;13.03;11.43;;;;;;;;;;5007135;28;20475;-82
2022/06/07 01:29:08;;;;;;;10.93;9.77;;;;;;;;;;5007046;28;20477;-83
2022/06/07 01:31:34;;;;;;;13.40;11.77;;;;;;;;;;5008561;28;20470;-84
2022/06/07 01:34:01;;;;;;;13.40;11.63;;;;;;;;;;5010980;28;20450;-82
2022/06/07 01:36:27;;;;;;;13.43;12.07;;;;;;;;;;5004842;28;20461;-81
2022/06/07 01:44:19;;;;;;;16.43;13.63;;;;;;;;;;5002971;28;21223;-83
2022/06/07 01:46:46;;;;;;;13.90;12.47;;;;;;;;;;5006141;28;20974;-81
2022/06/07 01:49:12;;;;;;;14.73;12.80;;;;;;;;;;5006577;28;20453;-81
2022/06/07 01:51:38;;;;;;;17.27;14.00;;;;;;;;;;5006670;28;20478;-82
2022/06/07 01:54:06;;;;;;;15.13;13.40;;;;;;;;;;5009009;28;20457;-81
2022/06/07 01:56:32;;;;;;;15.93;14.13;;;;;;;;;;5001326;28;20475;-81
2022/06/07 01:58:59;;;;;;;16.63;14.40;;;;;;;;;;4999639;28;20875;-82
2022/06/07 02:01:25;;;;;;;22.70;12.23;;;;;;;;;;5006061;28;20438;-81
2022/06/07 02:03:51;;;;;;;16.17;14.47;;;;;;;;;;5000795;28;20455;-82
2022/06/07 02:06:18;;;;;;;15.83;14.13;;;;;;;;;;4999941;28;20448;-81
2022/06/07 02:08:44;;;;;;;13.97;12.57;;;;;;;;;;4996341;28;20486;-82
2022/06/07 02:11:13;;;;;;;14.03;12.40;;;;;;;;;;4999276;28;20478;-82
2022/06/07 02:13:40;;;;;;;16.60;14.30;;;;;;;;;;5005144;28;20466;-81
2022/06/07 02:16:07;;;;;;;13.77;12.30;;;;;;;;;;5000335;28;20465;-82
2022/06/07 02:18:34;;;;;;;16.53;11.83;;;;;;;;;;5000717;28;20465;-82
2022/06/07 02:21:00;;;;;;;12.57;11.27;;;;;;;;;;4997558;28;20453;-81
2022/06/07 02:23:27;;;;;;;13.50;11.77;;;;;;;;;;4998741;28;20466;-80
2022/06/07 02:25:54;;;;;;;12.93;11.60;;;;;;;;;;5002977;28;20451;-79
2022/06/07 02:28:23;;;;;;;11.43;10.23;;;;;;;;;;5000251;28;20482;-82
2022/06/07 02:30:52;;;;;;;12.07;10.77;;;;;;;;;;5002844;28;20866;-83
2022/06/07 02:33:19;;;;;;;13.80;9.40;;;;;;;;;;5002006;28;20467;-81
2022/06/07 02:35:46;;;;;;;13.50;10.23;;;;;;;;;;5005969;28;20806;-82
2022/06/07 02:38:12;;;;;;;11.10;9.73;;;;;;;;;;5004930;28;20440;-82
2022/06/07 02:40:39;;;;;;;12.50;10.33;;;;;;;;;;5001135;28;20474;-81
2022/06/07 02:43:05;;;;;;;12.87;10.80;;;;;;;;;;4998766;28;20470;-80
2022/06/07 02:45:33;;;;;;;13.47;11.90;;;;;;;;;;5004709;28;20454;-80
2022/06/07 02:48:00;;;;;;;12.87;11.57;;;;;;;;;;5000486;28;20471;-82
2022/06/07 02:50:26;;;;;;;12.23;10.83;;;;;;;;;;5003230;28;20435;-82
2022/06/07 02:52:52;;;;;;;14.50;12.20;;;;;;;;;;4999252;28;20477;-81
2022/06/07 02:55:19;;;;;;;15.90;12.60;;;;;;;;;;5003157;28;20462;-81
2022/06/07 02:57:45;;;;;;;19.10;11.73;;;;;;;;;;5004455;28;20470;-82
2022/06/07 03:00:14;;;;;;;14.23;10.97;;;;;;;;;;5000014;28;20453;-82
2022/06/07 03:02:42;;;;;;;12.43;11.10;;;;;;;;;;5002842;28;21013;-82
2022/06/07 03:05:10;;;;;;;13.37;11.50;;;;;;;;;;5001175;28;20454;-83
2022/06/07 03:07:36;;;;;;;14.00;12.13;;;;;;;;;;5000642;28;20465;-80
2022/06/07 03:10:03;;;;;;;15.17;12.30;;;;;;;;;;5004188;28;20977;-81
2022/06/07 03:12:29;;;;;;;13.87;12.03;;;;;;;;;;5007869;28;21025;-82
2022/06/07 03:14:57;;;;;;;16.30;12.50;;;;;;;;;;5007945;28;20442;-83
2022/06/07 03:17:24;;;;;;;13.27;11.87;;;;;;;;;;5001733;28;20470;-82
2022/06/07 03:19:51;;;;;;;17.40;11.70;;;;;;;;;;5003628;28;20981;-82
2022/06/07 03:22:18;;;;;;;13.13;11.50;;;;;;;;;;5006609;28;20469;-83
2022/06/07 03:24:44;;;;;;;18.60;13.40;;;;;;;;;;5005201;28;20437;-82
2022/06/07 03:27:11;;;;;;;13.10;11.70;;;;;;;;;;5005272;28;20476;-82
2022/06/07 03:29:37;;;;;;;12.20;10.90;;;;;;;;;;5007856;28;20846;-82
2022/06/07 03:32:04;;;;;;;12.73;11.43;;;;;;;;;;5004928;28;20474;-80
2022/06/07 03:34:30;;;;;;;12.43;11.13;;;;;;;;;;5001339;28;20457;-83
2022/06/07 03:36:58;;;;;;;16.00;12.93;;;;;;;;;;5003696;28;20466;-82
2022/06/07 03:39:25;;;;;;;15.20;12.83;;;;;;;;;;5004893;28;20548;-81
2022/06/07 03:41:51;;;;;;;14.00;12.27;;;;;;;;;;5001395;28;20477;-81
2022/06/07 03:44:18;;;;;;;13.83;12.20;;;;;;;;;;5009200;23;21064;-87
2022/06/07 03:46:45;;;;;;;14.20;12.70;;;;;;;;;;4996741;28;20489;-82
2022/06/07 03:49:11;;;;;;;13.67;12.00;;;;;;;;;;4996861;28;20736;-85
2022/06/07 03:51:40;;;;;;;13.30;11.83;;;;;;;;;;4998325;28;20852;-85
2022/06/07 03:54:08;;;;;;;15.30;11.77;;;;;;;;;;4998111;28;20470;-85
2022/06/07 03:56:35;;;;;;;13.50;12.10;;;;;;;;;;4999471;28;20465;-84
2022/06/07 03:59:01;;;;;;;16.50;12.60;;;;;;;;;;4998756;28;20578;-83
2022/06/07 04:01:28;;;;;;;14.77;12.97;;;;;;;;;;5001031;28;20467;-82
2022/06/07 04:03:56;;;;;;;13.23;11.83;;;;;;;;;;4995407;28;20442;-83
2022/06/07 04:06:24;;;;;;;14.90;11.43;;;;;;;;;;4998118;28;20463;-88
2022/06/07 04:08:51;;;;;;;14.57;12.77;;;;;;;;;;4999090;28;20485;-84
2022/06/07 04:11:20;;;;;;;15.00;12.70;;;;;;;;;;4995953;28;20430;-84
2022/06/07 04:13:47;;;;;;;16.43;13.90;;;;;;;;;;4997392;28;20473;-83
2022/06/07 04:16:15;;;;;;;14.37;12.90;;;;;;;;;;4999205;28;20448;-86
2022/06/07 04:18:42;;;;;;;17.70;14.50;;;;;;;;;;4996691;28;20508;-83
2022/06/07 04:21:09;;;;;;;16.90;14.30;;;;;;;;;;5002783;28;20799;-84
2022/06/07 04:23:35;;;;;;;16.03;14.30;;;;;;;;;;4995257;28;20537;-84
2022/06/07 04:26:06;;;;;;;18.80;15.23;;;;;;;;;;4997470;28;20439;-87
2022/06/07 04:28:33;;;;;;;18.07;14.33;;;;;;;;;;5003385;28;20470;-87
2022/06/07 04:30:59;;;;;;;15.97;14.33;;;;;;;;;;5004371;28;20464;-86
2022/06/07 04:33:26;;;;;;;20.37;15.90;;;;;;;;;;5002927;28;20469;-83
2022/06/07 04:35:52;;;;;;;16.30;14.60;;;;;;;;;;5003327;28;20452;-86
2022/06/07 04:38:19;;;;;;;19.40;15.77;;;;;;;;;;4997243;28;20837;-85
2022/06/07 04:40:45;;;;;;;19.80;15.27;;;;;;;;;;4998619;28;20937;-87
2022/06/07 04:43:12;;;;;;;22.63;17.87;;;;;;;;;;5002349;28;21200;-85
2022/06/07 04:45:40;;;;;;;18.03;15.90;;;;;;;;;;5001840;28;20461;-86
2022/06/07 04:48:07;;;;;;;17.97;15.10;;;;;;;;;;4999559;28;20485;-83
2022/06/07 04:50:34;;;;;;;21.10;16.77;;;;;;;;;;4998134;28;20470;-85
2022/06/07 04:53:00;;;;;;;23.33;17.63;;;;;;;;;;5000400;28;20480;-87
2022/06/07 04:55:27;;;;;;;22.83;16.60;;;;;;;;;;5000952;28;20446;-86
2022/06/07 04:57:53;;;;;;;21.10;18.23;;;;;;;;;;4999299;28;20477;-86
2022/06/07 05:00:20;;;;;;;29.00;17.47;;;;;;;;;;4999877;28;20429;-84
2022/06/07 05:02:48;;;;;;;19.10;16.60;;;;;;;;;;5004334;28;20463;-87
2022/06/07 05:05:15;;;;;;;19.93;17.50;;;;;;;;;;5004353;28;20457;-87
2022/06/07 05:07:41;;;;;;;22.53;18.10;;;;;;;;;;5002703;28;20481;-85
2022/06/07 05:10:09;;;;;;;23.27;17.37;;;;;;;;;;5000900;28;20473;-86
2022/06/07 05:12:35;;;;;;;20.80;17.47;;;;;;;;;;4999128;28;20452;-85
2022/06/07 05:15:02;;;;;;;20.47;17.27;;;;;;;;;;5005132;28;20791;-85
2022/06/07 05:17:28;;;;;;;21.90;19.10;;;;;;;;;;5008076;28;20463;-85
2022/06/07 05:19:56;;;;;;;21.00;17.40;;;;;;;;;;5006438;28;20474;-83
2022/06/07 05:22:24;;;;;;;20.87;17.17;;;;;;;;;;5002760;28;20952;-85
2022/06/07 05:24:50;;;;;;;26.23;19.97;;;;;;;;;;5001709;28;20451;-86
2022/06/07 05:27:19;;;;;;;24.87;19.53;;;;;;;;;;4999422;28;20477;-86
2022/06/07 05:29:48;;;;;;;25.27;20.03;;;;;;;;;;5002532;28;20470;-85
2022/06/07 05:32:15;;;;;;;25.70;19.63;;;;;;;;;;5003513;28;20449;-87
2022/06/07 05:34:41;;;;;;;23.87;18.10;;;;;;;;;;5000116;28;20455;-82
2022/06/07 05:37:11;;;;;;;24.57;19.43;;;;;;;;;;5000401;28;20480;-86
2022/06/07 05:39:38;;;;;;;24.70;18.53;;;;;;;;;;5003271;28;20433;-85
2022/06/07 05:42:04;;;;;;;22.80;18.00;;;;;;;;;;5000449;28;20473;-83
2022/06/07 05:44:31;;;;;;;24.87;19.60;;;;;;;;;;5002163;28;20471;-86
2022/06/07 05:46:59;;;;;;;25.00;19.40;;;;;;;;;;5001720;28;20462;-84
2022/06/07 05:49:26;;;;;;;24.87;19.33;;;;;;;;;;5004457;28;20844;-82
2022/06/07 05:51:52;;;;;;;22.53;18.20;;;;;;;;;;5000743;28;20857;-84
2022/06/07 05:54:20;;;;;;;23.60;20.27;;;;;;;;;;5002046;28;20462;-87
2022/06/07 05:56:47;;;;;;;33.07;24.07;;;;;;;;;;5001270;28;20605;-82
2022/06/07 05:59:13;;;;;;;32.00;23.77;;;;;;;;;;5001841;28;20440;-85
2022/06/07 06:01:39;;;;;;;27.90;23.43;;;;;;;;;;5003376;28;20469;-84
2022/06/07 06:04:07;;;;;;;32.50;23.73;;;;;;;;;;4995412;28;20446;-86
2022/06/07 06:06:33;;;;;;;32.93;24.60;;;;;;;;;;4997014;28;21059;-83
2022/06/07 06:11:44;;;;;;;31.73;24.53;;;;;;;;;;4997273;28;20576;-87
2022/06/07 06:14:11;;;;;;;38.10;27.30;;;;;;;;;;5000516;28;20486;-84
2022/06/07 06:16:38;;;;;;;30.67;26.10;;;;;;;;;;4996242;28;20556;-84
2022/06/07 06:19:04;;;;;;;42.00;29.33;;;;;;;;;;4996971;28;20465;-84
2022/06/07 06:21:33;;;;;;;44.10;31.70;;;;;;;;;;4999377;28;20492;-83
2022/06/07 06:23:59;;;;;;;40.87;33.57;;;;;;;;;;4999137;28;21161;-85
2022/06/07 06:26:26;;;;;;;41.87;31.70;;;;;;;;;;4999874;28;20441;-83
2022/06/07 06:28:54;;;;;;;44.63;31.40;;;;;;;;;;5001698;28;20478;-86
2022/06/07 06:31:22;;;;;;;40.20;30.33;;;;;;;;;;4996836;28;20802;-84
2022/06/07 06:33:50;;;;;;;42.60;30.80;;;;;;;;;;5000763;28;20490;-84
2022/06/07 06:36:18;;;;;;;47.40;31.43;;;;;;;;;;4999732;28;20441;-84
2022/06/07 06:38:44;;;;;;;41.60;31.50;;;;;;;;;;4996193;28;20789;-83
2022/06/07 06:41:12;;;;;;;39.10;29.10;;;;;;;;;;5003279;28;20802;-83
2022/06/07 06:43:38;;;;;;;41.97;32.43;;;;;;;;;;4997836;28;20436;-83
2022/06/07 06:46:06;;;;;;;46.77;29.90;;;;;;;;;;4999243;28;20444;-84
2022/06/07 06:48:33;;;;;;;43.70;30.10;;;;;;;;;;5002676;28;21021;-85
2022/06/07 06:51:00;;;;;;;38.97;31.07;;;;;;;;;;5003245;28;20429;-79
2022/06/07 06:53:27;;;;;;;44.93;32.47;;;;;;;;;;4999490;28;20471;-85
2022/06/07 06:55:55;;;;;;;41.40;31.97;;;;;;;;;;4996175;28;20467;-86
2022/06/07 06:58:21;;;;;;;41.37;31.17;;;;;;;;;;4999839;28;20497;-83
2022/06/07 07:00:48;;;;;;;38.30;31.57;;;;;;;;;;4999850;28;20462;-85
2022/06/07 07:03:15;;;;;;;40.97;31.00;;;;;;;;;;4998487;28;20448;-84
2022/06/07 07:05:42;;;;;;;33.63;29.80;;;;;;;;;;4998640;28;20459;-84
2022/06/07 07:08:10;;;;;;;35.80;28.87;;;;;;;;;;4998585;28;20461;-86
2022/06/07 07:10:36;;;;;;;32.30;26.13;;;;;;;;;;4998556;28;20773;-83
2022/06/07 07:13:03;;;;;;;34.97;27.07;;;;;;;;;;4999307;28;20465;-83
2022/06/07 07:15:29;;;;;;;32.47;27.10;;;;;;;;;;5002067;28;20434;-83
2022/06/07 07:17:55;;;;;;;35.77;28.23;;;;;;;;;;4996641;28;20492;-84
2022/06/07 07:20:23;;;;;;;33.57;26.57;;;;;;;;;;5004351;28;20424;-82
2022/06/07 07:22:49;;;;;;;29.90;26.27;;;;;;;;;;4998704;28;20905;-84
2022/06/07 07:25:15;;;;;;;31.33;24.67;;;;;;;;;;5001763;28;20454;-83
2022/06/07 07:27:42;;;;;;;34.20;24.40;;;;;;;;;;4998596;28;20535;-84
2022/06/07 07:30:09;;;;;;;33.50;25.17;;;;;;;;;;5000970;28;20451;-83
2022/06/07 07:32:39;;;;;;;34.73;24.47;;;;;;;;;;4997957;28;20470;-82
2022/06/07 07:35:06;;;;;;;29.80;24.00;;;;;;;;;;4999537;28;20438;-85
2022/06/07 07:37:33;;;;;;;27.03;23.43;;;;;;;;;;4998322;28;20449;-84
2022/06/07 07:40:00;;;;;;;32.63;23.60;;;;;;;;;;5000782;28;20426;-85
2022/06/07 07:42:26;;;;;;;31.30;22.50;;;;;;;;;;5002833;28;20448;-82
2022/06/07 07:44:52;;;;;;;26.17;21.77;;;;;;;;;;5001445;28;20436;-83
2022/06/07 07:47:19;;;;;;;23.33;18.40;;;;;;;;;;4998679;28;21023;-84
2022/06/07 07:49:45;;;;;;;26.00;20.30;;;;;;;;;;4994133;28;20459;-83
2022/06/07 07:52:12;;;;;;;22.57;18.30;;;;;;;;;;4995606;28;20814;-82
2022/06/07 07:54:39;;;;;;;24.00;19.87;;;;;;;;;;5000964;28;20504;-85
2022/06/07 07:57:06;;;;;;;21.50;19.20;;;;;;;;;;4996144;28;20870;-84
2022/06/07 07:59:32;;;;;;;24.60;18.93;;;;;;;;;;4999598;28;20459;-82
2022/06/07 08:01:59;;;;;;;28.73;20.07;;;;;;;;;;4994443;28;21016;-85
2022/06/07 08:04:25;;;;;;;21.87;17.40;;;;;;;;;;4998422;28;20537;-83
2022/06/07 08:06:52;;;;;;;20.43;17.70;;;;;;;;;;4996955;28;21033;-85
2022/06/07 08:09:19;;;;;;;24.43;19.60;;;;;;;;;;4996092;28;20437;-85
2022/06/07 08:11:46;;;;;;;21.20;18.03;;;;;;;;;;4997130;28;20444;-84
2022/06/07 08:14:16;;;;;;;22.00;18.20;;;;;;;;;;5001547;28;20484;-83
2022/06/07 08:16:42;;;;;;;21.20;18.00;;;;;;;;;;4994733;28;20499;-84
2022/06/07 08:19:09;;;;;;;22.70;16.50;;;;;;;;;;4997033;28;20448;-82
2022/06/07 08:21:36;;;;;;;21.60;17.20;;;;;;;;;;4995958;28;20441;-84
2022/06/07 08:24:02;;;;;;;19.23;16.50;;;;;;;;;;4993798;28;20819;-84
2022/06/07 08:26:30;;;;;;;21.90;17.17;;;;;;;;;;4996611;28;20574;-83
2022/06/07 08:28:58;;;;;;;16.63;14.13;;;;;;;;;;4999432;28;20462;-85
2022/06/07 08:31:26;;;;;;;20.60;16.10;;;;;;;;;;4997074;28;20420;-85
2022/06/07 08:39:41;;;;;;;19.10;14.77;;;;;;;;;;4975979;28;20440;-83
2022/06/07 08:42:14;;;;;;;15.77;14.13;;;;;;;;;;4992924;28;20448;-84
2022/06/07 08:44:45;;;;;;;16.87;14.53;;;;;;;;;;5003069;28;20445;-83
2022/06/07 08:47:17;;;;;;;16.77;14.97;;;;;;;;;;4995853;28;20467;-85
2022/06/07 08:49:43;;;;;;;18.50;15.90;;;;;;;;;;4998932;28;20982;-83
2022/06/07 08:52:13;;;;;;;17.43;14.47;;;;;;;;;;4993702;28;20466;-83
2022/06/07 08:54:40;;;;;;;17.60;15.00;;;;;;;;;;5000532;28;20487;-84
2022/06/07 08:57:12;;;;;;;18.40;15.47;;;;;;;;;;4998153;28;20836;-83
2022/06/07 08:59:38;;;;;;;15.90;14.10;;;;;;;;;;5002469;28;20447;-82
2022/06/07 09:02:12;;;;;;;15.07;13.47;;;;;;;;;;5002039;28;20508;-82
2022/06/07 09:04:39;;;;;;;16.70;13.73;;;;;;;;;;4998986;28;20417;-83
2022/06/07 09:07:12;;;;;;;17.83;12.93;;;;;;;;;;5000927;28;20446;-82
2022/06/07 09:12:24;;;;;;;12.83;11.23;;;;;;;;;;4995465;28;20478;-84
2022/06/07 09:14:52;;;;;;;12.53;9.77;;;;;;;;;;4997424;28;20488;-84
2022/06/07 09:17:21;;;;;;;12.73;10.93;;;;;;;;;;5002077;28;20508;-82
2022/06/07 09:19:49;;;;;;;14.50;9.97;;;;;;;;;;5000363;28;20500;-83
2022/06/07 09:22:17;;;;;;;12.73;10.30;;;;;;;;;;5002053;28;20457;-82
2022/06/07 09:24:50;;;;;;;13.77;11.50;;;;;;;;;;5001195;28;20417;-82
2022/06/07 09:27:17;;;;;;;17.47;10.80;;;;;;;;;;4997556;28;20476;-83
2022/06/07 09:29:50;;;;;;;12.70;10.63;;;;;;;;;;4995362;28;20448;-83
2022/06/07 09:32:17;;;;;;;14.60;12.07;;;;;;;;;;4997854;28;20486;-84
2022/06/07 09:34:57;;;;;;;13.23;11.00;;;;;;;;;;5003907;28;20482;-83
2022/06/07 09:37:27;;;;;;;13.03;10.67;;;;;;;;;;4995103;28;21057;-84
2022/06/07 09:39:55;;;;;;;13.13;11.33;;;;;;;;;;4992633;28;20462;-81
2022/06/07 09:42:24;;;;;;;13.30;11.40;;;;;;;;;;5003476;28;20448;-83
2022/06/07 09:44:57;;;;;;;13.63;11.60;;;;;;;;;;5035399;22;20475;-85
2022/06/07 09:47:25;;;;;;;14.80;12.60;;;;;;;;;;5014447;28;20437;-84
2022/06/07 09:49:56;;;;;;;17.60;12.63;;;;;;;;;;5015116;28;20954;-84
2022/06/07 09:52:25;;;;;;;12.47;11.17;;;;;;;;;;5016069;28;20969;-83
2022/06/07 09:54:53;;;;;;;13.40;12.00;;;;;;;;;;5015571;28;20514;-83
2022/06/07 09:57:34;;;;;;;17.27;12.70;;;;;;;;;;5011478;28;20475;-83
2022/06/07 10:00:05;;;;;;;16.97;12.57;;;;;;;;;;5013793;28;20446;-87
2022/06/07 10:02:45;;;;;;;14.33;12.17;;;;;;;;;;5014166;28;20476;-84
2022/06/07 10:05:16;;;;;;;18.20;11.97;;;;;;;;;;5012918;28;20438;-84
2022/06/07 10:07:50;;;;;;;16.63;12.93;;;;;;;;;;5014068;28;20468;-86
2022/06/07 10:10:20;;;;;;;21.13;13.40;;;;;;;;;;5014974;28;20429;-83
2022/06/07 10:12:51;;;;;;;19.40;13.73;;;;;;;;;;5013986;28;20449;-84
2022/06/07 10:15:23;;;;;;;19.43;13.87;;;;;;;;;;5014603;28;20463;-84
2022/06/07 10:18:03;;;;;;;16.73;12.80;;;;;;;;;;5012294;28;20470;-83
2022/06/07 10:20:33;;;;;;;19.70;12.57;;;;;;;;;;5013665;28;20446;-85
2022/06/07 10:23:24;;;;;;;16.33;12.17;;;;;;;;;;5013006;28;20807;-84
2022/06/07 10:25:58;;;;;;;20.10;11.50;;;;;;;;;;4995554;28;21445;-85
2022/06/07 10:28:29;;;;;;;16.47;12.03;;;;;;;;;;5011112;28;20451;-85
2022/06/07 10:30:59;;;;;;;15.60;11.00;;;;;;;;;;5010816;28;20450;-84
2022/06/07 10:33:36;;;;;;;14.93;12.37;;;;;;;;;;5008883;28;20453;-84
2022/06/07 10:36:05;;;;;;;15.80;13.10;;;;;;;;;;5011523;28;20518;-84
2022/06/07 10:38:37;;;;;;;18.90;11.60;;;;;;;;;;5009996;28;20495;-85
2022/06/07 10:41:11;;;;;;;19.23;12.70;;;;;;;;;;5007710;28;20425;-85
2022/06/07 10:43:43;;;;;;;18.50;13.03;;;;;;;;;;5006614;28;20440;-84
2022/06/07 10:46:12;;;;;;;20.60;14.00;;;;;;;;;;5010302;28;20450;-84
2022/06/07 10:48:41;;;;;;;17.70;12.20;;;;;;;;;;5013474;28;20448;-83
2022/06/07 10:52:20;;;;;;;15.20;11.93;;;;;;;;;;5013313;28;20453;-85
2022/06/07 10:54:00;;;;;;;18.43;13.90;;;;;;;;;;5013434;28;20525;-85
2022/06/07 10:56:30;;;;;;;21.70;12.23;;;;;;;;;;5009545;28;20489;-84
2022/06/07 10:58:58;;;;;;;15.03;12.70;;;;;;;;;;5012510;28;20417;-83
2022/06/07 11:01:28;;;;;;;19.67;13.97;;;;;;;;;;5010745;28;20425;-85
2022/06/07 11:04:01;;;;;;;16.87;13.60;;;;;;;;;;5014020;28;20464;-84
2022/06/07 11:09:36;;;;;;;14.40;11.80;;;;;;;;;;4970784;28;20428;-84
2022/06/07 11:12:09;;;;;;;16.57;13.10;;;;;;;;;;4970715;28;20479;-85
2022/06/07 11:14:42;;;;;;;17.63;12.80;;;;;;;;;;4991334;28;20469;-84
2022/06/07 11:17:15;;;;;;;17.07;12.40;;;;;;;;;;5011233;28;20496;-83
2022/06/07 11:19:42;;;;;;;14.70;12.37;;;;;;;;;;5012539;28;20508;-84
2022/06/07 11:22:14;;;;;;;19.77;12.50;;;;;;;;;;5011616;28;20440;-84
2022/06/07 11:24:52;;;;;;;14.20;11.53;;;;;;;;;;5012469;28;20461;-84
2022/06/07 11:27:24;;;;;;;15.00;11.43;;;;;;;;;;5011216;28;21021;-84
2022/06/07 11:30:17;;;;;;;15.60;12.50;;;;;;;;;;5011786;28;20478;-84
2022/06/07 11:32:50;;;;;;;19.20;12.27;;;;;;;;;;5010786;28;20462;-84
2022/06/07 11:35:36;;;;;;;13.10;10.90;;;;;;;;;;5010123;28;20544;-84
2022/06/07 11:38:12;;;;;;;13.23;10.50;;;;;;;;;;5011007;28;20492;-84
2022/06/07 11:40:39;;;;;;;15.10;11.20;;;;;;;;;;5011502;28;20446;-83
2022/06/07 11:43:27;;;;;;;15.00;11.80;;;;;;;;;;5009373;28;20979;-83
2022/06/07 11:45:53;;;;;;;13.07;11.60;;;;;;;;;;5012008;28;20445;-84
2022/06/07 11:48:23;;;;;;;12.90;11.70;;;;;;;;;;5010008;28;20444;-84
2022/06/07 11:50:56;;;;;;;19.33;12.43;;;;;;;;;;5012253;28;20441;-83
2022/06/07 11:53:28;;;;;;;16.23;11.73;;;;;;;;;;5011727;28;20499;-83
2022/06/07 11:55:57;;;;;;;19.33;13.50;;;;;;;;;;5010673;28;20560;-86
2022/06/07 11:58:39;;;;;;;16.80;13.40;;;;;;;;;;5011398;28;20491;-84
2022/06/07 12:01:22;;;;;;;16.43;12.80;;;;;;;;;;5011520;28;20425;-85
2022/06/07 12:04:05;;;;;;;15.90;12.87;;;;;;;;;;5011074;28;20524;-83
2022/06/07 12:06:33;;;;;;;17.30;12.67;;;;;;;;;;5011711;28;20474;-85
2022/06/07 12:09:02;;;;;;;17.90;13.40;;;;;;;;;;5010104;28;20451;-83
2022/06/07 12:11:29;;;;;;;15.10;13.50;;;;;;;;;;5011521;28;20453;-85
2022/06/07 12:14:02;;;;;;;18.40;14.77;;;;;;;;;;5011313;28;20471;-85
2022/06/07 12:16:33;;;;;;;19.03;14.90;;;;;;;;;;5012875;28;20480;-84
2022/06/07 12:19:01;;;;;;;21.90;15.73;;;;;;;;;;5010693;28;20434;-85
2022/06/07 12:21:28;;;;;;;19.83;15.40;;;;;;;;;;5008096;28;20525;-84
2022/06/07 12:24:01;;;;;;;22.13;15.70;;;;;;;;;;5011216;28;20577;-84
2022/06/07 12:26:28;;;;;;;17.73;15.83;;;;;;;;;;5010750;28;20428;-84
2022/06/07 12:28:56;;;;;;;22.73;16.80;;;;;;;;;;5010631;28;20427;-82
2022/06/07 12:31:25;;;;;;;24.53;16.30;;;;;;;;;;5009116;28;20454;-84
2022/06/07 12:33:54;;;;;;;20.67;15.40;;;;;;;;;;5011696;28;20480;-84
2022/06/07 12:36:23;;;;;;;23.13;15.30;;;;;;;;;;5011131;28;20467;-84
2022/06/07 12:38:51;;;;;;;23.37;15.77;;;;;;;;;;5010099;28;20493;-84
2022/06/07 12:41:18;;;;;;;19.80;16.43;;;;;;;;;;5009529;28;20421;-84
2022/06/07 12:43:46;;;;;;;18.87;15.40;;;;;;;;;;5011172;28;20560;-83
2022/06/07 12:46:19;;;;;;;19.43;15.90;;;;;;;;;;5010390;28;20428;-84
2022/06/07 12:48:46;;;;;;;20.57;16.10;;;;;;;;;;5011708;28;20432;-84
2022/06/07 12:51:34;;;;;;;22.50;17.27;;;;;;;;;;5010820;28;20457;-83
2022/06/07 12:54:02;;;;;;;20.23;16.23;;;;;;;;;;5011264;28;20440;-84
2022/06/07 12:56:29;;;;;;;29.70;16.80;;;;;;;;;;5010296;28;20496;-84
2022/06/07 12:58:57;;;;;;;22.13;15.83;;;;;;;;;;5010342;28;20425;-83
2022/06/07 13:01:25;;;;;;;21.10;16.53;;;;;;;;;;5009846;28;20469;-83
2022/06/07 13:03:53;;;;;;;22.67;16.20;;;;;;;;;;5009273;28;20444;-83
2022/06/07 13:06:21;;;;;;;22.47;16.47;;;;;;;;;;5009678;28;20441;-83
2022/06/07 13:08:57;;;;;;;18.57;15.10;;;;;;;;;;5010043;28;20469;-84
2022/06/07 13:11:24;;;;;;;18.40;14.50;;;;;;;;;;5008951;28;20445;-84
2022/06/07 13:13:52;;;;;;;23.00;15.20;;;;;;;;;;5010770;28;20470;-85
2022/06/07 13:16:31;;;;;;;22.07;15.93;;;;;;;;;;5013172;28;20509;-84
2022/06/07 13:18:58;;;;;;;23.03;16.30;;;;;;;;;;5014255;28;20454;-85
2022/06/07 13:21:29;;;;;;;21.13;16.23;;;;;;;;;;5010811;28;20489;-84
2022/06/07 13:23:58;;;;;;;19.60;14.63;;;;;;;;;;5013928;28;20437;-84
2022/06/07 13:26:26;;;;;;;20.37;15.57;;;;;;;;;;5009319;28;20421;-84
2022/06/07 13:29:03;;;;;;;18.87;16.00;;;;;;;;;;5013903;28;20420;-84
2022/06/07 13:31:32;;;;;;;18.73;16.00;;;;;;;;;;5012961;28;20536;-84
2022/06/07 13:34:03;;;;;;;19.73;16.30;;;;;;;;;;5014036;28;20437;-85
2022/06/07 13:36:31;;;;;;;19.73;16.17;;;;;;;;;;5012234;28;21131;-84
2022/06/07 13:38:59;;;;;;;20.30;15.57;;;;;;;;;;5012936;28;20442;-83
2022/06/07 13:41:26;;;;;;;20.27;15.53;;;;;;;;;;5010469;28;20474;-85
2022/06/07 13:43:56;;;;;;;21.03;15.27;;;;;;;;;;5013153;28;20470;-85
2022/06/07 13:46:24;;;;;;;17.67;15.87;;;;;;;;;;5011252;28;21131;-84
2022/06/07 13:54:25;;;;;;;25.90;16.00;;;;;;;;;;5012801;28;20423;-85
2022/06/07 13:56:51;;;;;;;20.70;15.10;;;;;;;;;;5012174;28;20445;-84
2022/06/07 13:59:18;;;;;;;18.07;15.17;;;;;;;;;;5010369;28;20414;-86
2022/06/07 14:01:47;;;;;;;19.13;12.90;;;;;;;;;;5011508;28;20532;-84
2022/06/07 14:04:15;;;;;;;16.03;13.63;;;;;;;;;;5011924;28;20479;-84
2022/06/07 14:06:42;;;;;;;16.23;13.30;;;;;;;;;;5011679;28;20470;-84
2022/06/07 14:09:12;;;;;;;18.17;14.77;;;;;;;;;;5013464;28;20874;-83
2022/06/07 14:11:40;;;;;;;17.50;13.23;;;;;;;;;;5010425;28;20474;-84
2022/06/07 14:14:07;;;;;;;21.40;14.47;;;;;;;;;;5009973;28;20858;-85
2022/06/07 14:16:35;;;;;;;16.30;12.17;;;;;;;;;;5009182;28;20490;-84
2022/06/07 14:19:04;;;;;;;20.90;13.13;;;;;;;;;;5010434;28;20450;-84
2022/06/07 14:21:30;;;;;;;19.57;12.67;;;;;;;;;;5008641;28;20466;-84
2022/06/07 14:23:57;;;;;;;17.87;12.73;;;;;;;;;;5008334;28;20527;-84
2022/06/07 14:26:23;;;;;;;19.33;14.13;;;;;;;;;;5008937;28;20526;-84
2022/06/07 14:28:51;;;;;;;19.53;12.77;;;;;;;;;;5009914;28;20446;-85
2022/06/07 14:31:18;;;;;;;17.47;13.00;;;;;;;;;;5006399;28;20443;-84
2022/06/07 14:33:44;;;;;;;15.53;12.50;;;;;;;;;;5010255;28;20479;-84
2022/06/07 14:36:12;;;;;;;17.40;12.77;;;;;;;;;;5007349;28;20482;-84
2022/06/07 14:38:38;;;;;;;16.43;13.47;;;;;;;;;;5008068;28;20523;-85
2022/06/07 14:41:05;;;;;;;22.20;13.57;;;;;;;;;;5006114;28;20446;-83
2022/06/07 14:43:32;;;;;;;16.10;12.77;;;;;;;;;;5008826;28;20473;-84
2022/06/07 14:46:02;;;;;;;20.53;12.73;;;;;;;;;;5008421;28;20444;-84
2022/06/07 14:48:30;;;;;;;16.50;12.30;;;;;;;;;;5007261;28;20467;-84
2022/06/07 14:50:57;;;;;;;16.70;12.03;;;;;;;;;;5007143;28;20477;-85
2022/06/07 14:53:23;;;;;;;13.87;12.43;;;;;;;;;;5007752;28;20519;-83
2022/06/07 14:55:50;;;;;;;15.50;11.23;;;;;;;;;;5006985;28;20477;-84
2022/06/07 14:58:16;;;;;;;17.43;12.03;;;;;;;;;;5007972;28;20503;-84